sensor_id;sensor_type;location;lat;lon;timestamp;P1;durP1;ratioP1;P2;durP2;ratioP2
71753;SDS011;59593;51.716;7.016;2022-12-07T00:00:51;19.27;;;16.07;;
71753;SDS011;59593;51.716;7.016;2022-12-07T00:03:17;23.03;;;16.63;;
71753;SDS011;59593;51.716;7.016;2022-12-07T00:05:43;17.97;;;15.53;;
71753;SDS011;59593;51.716;7.016;2022-12-07T00:08:08;19.67;;;15.57;;
71753;SDS011;59593;51.716;7.016;2022-12-07T00:10:34;18.17;;;14.93;;
71753;SDS011;59593;51.716;7.016;2022-12-07T00:13:00;19.33;;;16.13;;
71753;SDS011;59593;51.716;7.016;2022-12-07T00:15:25;19.20;;;14.97;;
71753;SDS011;59593;51.716;7.016;2022-12-07T00:17:51;20.23;;;15.70;;
71753;SDS011;59593;51.716;7.016;2022-12-07T00:20:17;20.07;;;15.17;;
71753;SDS011;59593;51.716;7.016;2022-12-07T00:22:42;21.40;;;15.73;;
71753;SDS011;59593;51.716;7.016;2022-12-07T00:25:08;19.20;;;14.80;;
71753;SDS011;59593;51.716;7.016;2022-12-07T00:27:33;18.33;;;15.13;;
71753;SDS011;59593;51.716;7.016;2022-12-07T00:29:59;20.33;;;15.40;;
71753;SDS011;59593;51.716;7.016;2022-12-07T00:32:24;21.03;;;16.10;;
71753;SDS011;59593;51.716;7.016;2022-12-07T00:34:51;19.67;;;15.63;;
71753;SDS011;59593;51.716;7.016;2022-12-07T00:37:16;21.73;;;16.03;;
71753;SDS011;59593;51.716;7.016;2022-12-07T00:39:42;19.97;;;16.80;;
71753;SDS011;59593;51.716;7.016;2022-12-07T00:42:07;18.10;;;15.33;;
71753;SDS011;59593;51.716;7.016;2022-12-07T00:44:33;21.43;;;16.10;;
71753;SDS011;59593;51.716;7.016;2022-12-07T00:46:58;18.37;;;15.37;;
71753;SDS011;59593;51.716;7.016;2022-12-07T00:49:24;19.63;;;15.83;;
71753;SDS011;59593;51.716;7.016;2022-12-07T00:51:49;19.37;;;15.90;;
71753;SDS011;59593;51.716;7.016;2022-12-07T00:54:15;18.67;;;15.77;;
71753;SDS011;59593;51.716;7.016;2022-12-07T00:56:40;24.03;;;17.33;;
71753;SDS011;59593;51.716;7.016;2022-12-07T00:59:06;21.23;;;16.63;;
71753;SDS011;59593;51.716;7.016;2022-12-07T01:01:33;21.00;;;16.70;;
71753;SDS011;59593;51.716;7.016;2022-12-07T01:04:00;19.83;;;16.23;;
71753;SDS011;59593;51.716;7.016;2022-12-07T01:06:27;21.50;;;16.57;;
71753;SDS011;59593;51.716;7.016;2022-12-07T01:08:53;23.60;;;16.67;;
71753;SDS011;59593;51.716;7.016;2022-12-07T01:11:20;20.43;;;17.43;;
71753;SDS011;59593;51.716;7.016;2022-12-07T01:13:49;23.10;;;18.00;;
71753;SDS011;59593;51.716;7.016;2022-12-07T01:16:16;20.57;;;16.90;;
71753;SDS011;59593;51.716;7.016;2022-12-07T01:18:43;21.37;;;16.10;;
71753;SDS011;59593;51.716;7.016;2022-12-07T01:21:12;19.97;;;15.83;;
71753;SDS011;59593;51.716;7.016;2022-12-07T01:23:40;23.50;;;17.37;;
71753;SDS011;59593;51.716;7.016;2022-12-07T01:26:07;22.00;;;17.07;;
71753;SDS011;59593;51.716;7.016;2022-12-07T01:28:35;23.07;;;17.20;;
71753;SDS011;59593;51.716;7.016;2022-12-07T01:31:08;22.37;;;16.67;;
71753;SDS011;59593;51.716;7.016;2022-12-07T01:33:37;19.70;;;16.70;;
71753;SDS011;59593;51.716;7.016;2022-12-07T01:36:04;21.70;;;17.57;;
71753;SDS011;59593;51.716;7.016;2022-12-07T01:38:31;27.60;;;17.80;;
71753;SDS011;59593;51.716;7.016;2022-12-07T01:40:58;23.03;;;18.37;;
71753;SDS011;59593;51.716;7.016;2022-12-07T01:43:25;23.97;;;17.07;;
71753;SDS011;59593;51.716;7.016;2022-12-07T01:45:52;23.20;;;18.80;;
71753;SDS011;59593;51.716;7.016;2022-12-07T01:48:19;24.83;;;19.50;;
71753;SDS011;59593;51.716;7.016;2022-12-07T01:50:51;24.57;;;19.40;;
71753;SDS011;59593;51.716;7.016;2022-12-07T01:53:18;22.23;;;18.40;;
71753;SDS011;59593;51.716;7.016;2022-12-07T01:55:46;21.67;;;16.60;;
71753;SDS011;59593;51.716;7.016;2022-12-07T01:58:17;21.77;;;16.70;;
71753;SDS011;59593;51.716;7.016;2022-12-07T02:00:43;19.47;;;16.20;;
71753;SDS011;59593;51.716;7.016;2022-12-07T02:05:47;19.27;;;16.77;;
71753;SDS011;59593;51.716;7.016;2022-12-07T02:08:14;23.17;;;17.97;;
71753;SDS011;59593;51.716;7.016;2022-12-07T02:10:40;22.53;;;17.27;;
71753;SDS011;59593;51.716;7.016;2022-12-07T02:13:16;21.97;;;16.93;;
71753;SDS011;59593;51.716;7.016;2022-12-07T02:18:51;22.40;;;17.40;;
71753;SDS011;59593;51.716;7.016;2022-12-07T02:27:43;20.57;;;16.63;;
71753;SDS011;59593;51.716;7.016;2022-12-07T02:30:17;20.63;;;17.30;;
71753;SDS011;59593;51.716;7.016;2022-12-07T02:35:34;23.03;;;16.77;;
71753;SDS011;59593;51.716;7.016;2022-12-07T02:38:03;22.03;;;17.30;;
71753;SDS011;59593;51.716;7.016;2022-12-07T02:40:39;20.53;;;17.50;;
71753;SDS011;59593;51.716;7.016;2022-12-07T02:43:58;19.77;;;16.40;;
71753;SDS011;59593;51.716;7.016;2022-12-07T02:46:08;21.57;;;15.83;;
71753;SDS011;59593;51.716;7.016;2022-12-07T02:48:38;21.07;;;16.93;;
71753;SDS011;59593;51.716;7.016;2022-12-07T02:51:05;22.20;;;16.60;;
71753;SDS011;59593;51.716;7.016;2022-12-07T02:53:32;21.87;;;16.17;;
71753;SDS011;59593;51.716;7.016;2022-12-07T02:56:01;21.33;;;16.50;;
71753;SDS011;59593;51.716;7.016;2022-12-07T03:04:15;23.23;;;16.53;;
71753;SDS011;59593;51.716;7.016;2022-12-07T03:10:01;19.50;;;15.77;;
71753;SDS011;59593;51.716;7.016;2022-12-07T03:12:58;21.93;;;16.30;;
71753;SDS011;59593;51.716;7.016;2022-12-07T03:18:11;20.97;;;16.07;;
71753;SDS011;59593;51.716;7.016;2022-12-07T03:20:38;23.20;;;17.03;;
71753;SDS011;59593;51.716;7.016;2022-12-07T03:23:06;19.93;;;15.93;;
71753;SDS011;59593;51.716;7.016;2022-12-07T03:25:34;20.33;;;16.47;;
71753;SDS011;59593;51.716;7.016;2022-12-07T03:28:05;20.23;;;15.80;;
71753;SDS011;59593;51.716;7.016;2022-12-07T03:30:52;20.20;;;16.23;;
71753;SDS011;59593;51.716;7.016;2022-12-07T03:33:33;20.43;;;16.23;;
71753;SDS011;59593;51.716;7.016;2022-12-07T03:38:33;21.30;;;16.33;;
71753;SDS011;59593;51.716;7.016;2022-12-07T03:43:34;20.43;;;15.97;;
71753;SDS011;59593;51.716;7.016;2022-12-07T03:51:36;19.10;;;15.07;;
71753;SDS011;59593;51.716;7.016;2022-12-07T03:54:26;22.20;;;15.20;;
71753;SDS011;59593;51.716;7.016;2022-12-07T03:57:05;20.63;;;14.63;;
71753;SDS011;59593;51.716;7.016;2022-12-07T03:59:33;18.97;;;15.47;;
71753;SDS011;59593;51.716;7.016;2022-12-07T04:02:04;18.00;;;13.83;;
71753;SDS011;59593;51.716;7.016;2022-12-07T04:04:31;16.87;;;13.20;;
71753;SDS011;59593;51.716;7.016;2022-12-07T04:06:57;17.27;;;13.33;;
71753;SDS011;59593;51.716;7.016;2022-12-07T04:09:22;15.03;;;13.00;;
71753;SDS011;59593;51.716;7.016;2022-12-07T04:11:48;18.53;;;14.33;;
71753;SDS011;59593;51.716;7.016;2022-12-07T04:14:14;16.93;;;13.90;;
71753;SDS011;59593;51.716;7.016;2022-12-07T04:16:49;19.33;;;15.00;;
71753;SDS011;59593;51.716;7.016;2022-12-07T04:19:17;18.33;;;14.53;;
71753;SDS011;59593;51.716;7.016;2022-12-07T04:21:44;18.33;;;14.00;;
71753;SDS011;59593;51.716;7.016;2022-12-07T04:24:11;18.67;;;13.27;;
71753;SDS011;59593;51.716;7.016;2022-12-07T04:26:38;18.67;;;14.30;;
71753;SDS011;59593;51.716;7.016;2022-12-07T04:29:03;19.17;;;14.53;;
71753;SDS011;59593;51.716;7.016;2022-12-07T04:31:29;18.87;;;14.20;;
71753;SDS011;59593;51.716;7.016;2022-12-07T04:33:55;18.57;;;13.83;;
71753;SDS011;59593;51.716;7.016;2022-12-07T04:36:21;18.17;;;12.73;;
71753;SDS011;59593;51.716;7.016;2022-12-07T04:38:46;16.97;;;12.77;;
71753;SDS011;59593;51.716;7.016;2022-12-07T04:41:12;17.60;;;12.17;;
71753;SDS011;59593;51.716;7.016;2022-12-07T04:43:38;16.13;;;12.37;;
71753;SDS011;59593;51.716;7.016;2022-12-07T04:46:04;18.30;;;12.13;;
71753;SDS011;59593;51.716;7.016;2022-12-07T04:48:30;17.03;;;12.77;;
71753;SDS011;59593;51.716;7.016;2022-12-07T04:50:56;17.17;;;12.67;;
71753;SDS011;59593;51.716;7.016;2022-12-07T04:53:22;17.37;;;12.77;;
71753;SDS011;59593;51.716;7.016;2022-12-07T04:55:47;15.97;;;12.80;;
71753;SDS011;59593;51.716;7.016;2022-12-07T04:58:13;16.10;;;12.50;;
71753;SDS011;59593;51.716;7.016;2022-12-07T05:00:39;17.87;;;12.80;;
71753;SDS011;59593;51.716;7.016;2022-12-07T05:03:05;21.33;;;13.40;;
71753;SDS011;59593;51.716;7.016;2022-12-07T05:05:31;19.60;;;13.10;;
71753;SDS011;59593;51.716;7.016;2022-12-07T05:07:56;19.10;;;12.13;;
71753;SDS011;59593;51.716;7.016;2022-12-07T05:10:22;20.03;;;13.03;;
71753;SDS011;59593;51.716;7.016;2022-12-07T05:12:47;19.60;;;13.07;;
71753;SDS011;59593;51.716;7.016;2022-12-07T05:15:14;17.57;;;12.83;;
71753;SDS011;59593;51.716;7.016;2022-12-07T05:17:40;17.07;;;12.60;;
71753;SDS011;59593;51.716;7.016;2022-12-07T05:20:06;18.77;;;11.77;;
71753;SDS011;59593;51.716;7.016;2022-12-07T05:22:32;22.77;;;13.13;;
71753;SDS011;59593;51.716;7.016;2022-12-07T05:24:58;18.47;;;12.27;;
71753;SDS011;59593;51.716;7.016;2022-12-07T05:27:24;17.97;;;13.10;;
71753;SDS011;59593;51.716;7.016;2022-12-07T05:29:50;18.93;;;15.63;;
71753;SDS011;59593;51.716;7.016;2022-12-07T05:32:16;20.43;;;14.23;;
71753;SDS011;59593;51.716;7.016;2022-12-07T05:34:42;17.47;;;13.43;;
71753;SDS011;59593;51.716;7.016;2022-12-07T05:37:07;18.63;;;13.30;;
71753;SDS011;59593;51.716;7.016;2022-12-07T05:39:33;20.10;;;13.40;;
71753;SDS011;59593;51.716;7.016;2022-12-07T05:41:58;19.23;;;13.40;;
71753;SDS011;59593;51.716;7.016;2022-12-07T05:44:42;17.37;;;12.80;;
71753;SDS011;59593;51.716;7.016;2022-12-07T05:47:09;17.27;;;12.23;;
71753;SDS011;59593;51.716;7.016;2022-12-07T05:49:36;19.23;;;11.63;;
71753;SDS011;59593;51.716;7.016;2022-12-07T05:52:02;16.70;;;11.93;;
71753;SDS011;59593;51.716;7.016;2022-12-07T05:54:28;18.50;;;11.53;;
71753;SDS011;59593;51.716;7.016;2022-12-07T05:56:53;17.17;;;13.33;;
71753;SDS011;59593;51.716;7.016;2022-12-07T05:59:19;21.80;;;15.53;;
71753;SDS011;59593;51.716;7.016;2022-12-07T06:02:07;19.93;;;12.97;;
71753;SDS011;59593;51.716;7.016;2022-12-07T06:04:40;20.17;;;13.37;;
71753;SDS011;59593;51.716;7.016;2022-12-07T06:07:07;17.00;;;12.13;;
71753;SDS011;59593;51.716;7.016;2022-12-07T06:09:34;19.17;;;13.50;;
71753;SDS011;59593;51.716;7.016;2022-12-07T06:12:00;19.23;;;12.87;;
71753;SDS011;59593;51.716;7.016;2022-12-07T06:14:45;17.70;;;14.83;;
71753;SDS011;59593;51.716;7.016;2022-12-07T06:17:10;24.93;;;13.83;;
71753;SDS011;59593;51.716;7.016;2022-12-07T06:19:37;21.23;;;12.23;;
71753;SDS011;59593;51.716;7.016;2022-12-07T06:22:03;17.90;;;12.60;;
71753;SDS011;59593;51.716;7.016;2022-12-07T06:24:29;19.60;;;14.57;;
71753;SDS011;59593;51.716;7.016;2022-12-07T06:26:56;24.40;;;16.67;;
71753;SDS011;59593;51.716;7.016;2022-12-07T06:29:22;24.07;;;16.40;;
71753;SDS011;59593;51.716;7.016;2022-12-07T06:31:47;23.57;;;15.37;;
71753;SDS011;59593;51.716;7.016;2022-12-07T06:34:14;20.53;;;15.47;;
71753;SDS011;59593;51.716;7.016;2022-12-07T06:36:41;32.63;;;25.33;;
71753;SDS011;59593;51.716;7.016;2022-12-07T06:39:07;50.23;;;36.30;;
71753;SDS011;59593;51.716;7.016;2022-12-07T06:41:34;63.23;;;46.03;;
71753;SDS011;59593;51.716;7.016;2022-12-07T06:44:02;88.97;;;61.13;;
71753;SDS011;59593;51.716;7.016;2022-12-07T06:46:28;81.33;;;57.53;;
71753;SDS011;59593;51.716;7.016;2022-12-07T06:48:53;57.10;;;41.43;;
71753;SDS011;59593;51.716;7.016;2022-12-07T06:51:19;50.83;;;37.40;;
71753;SDS011;59593;51.716;7.016;2022-12-07T06:53:45;41.37;;;29.80;;
71753;SDS011;59593;51.716;7.016;2022-12-07T06:56:10;32.43;;;23.83;;
71753;SDS011;59593;51.716;7.016;2022-12-07T06:58:36;22.57;;;15.73;;
71753;SDS011;59593;51.716;7.016;2022-12-07T07:01:02;20.53;;;15.50;;
71753;SDS011;59593;51.716;7.016;2022-12-07T07:03:27;19.37;;;13.30;;
71753;SDS011;59593;51.716;7.016;2022-12-07T07:05:53;18.43;;;13.60;;
71753;SDS011;59593;51.716;7.016;2022-12-07T07:08:19;17.53;;;12.33;;
71753;SDS011;59593;51.716;7.016;2022-12-07T07:10:44;18.43;;;11.53;;
71753;SDS011;59593;51.716;7.016;2022-12-07T07:13:10;17.40;;;11.13;;
71753;SDS011;59593;51.716;7.016;2022-12-07T07:15:37;16.57;;;11.63;;
71753;SDS011;59593;51.716;7.016;2022-12-07T07:18:03;31.83;;;19.40;;
71753;SDS011;59593;51.716;7.016;2022-12-07T07:20:28;23.70;;;16.47;;
71753;SDS011;59593;51.716;7.016;2022-12-07T07:22:54;20.83;;;13.07;;
71753;SDS011;59593;51.716;7.016;2022-12-07T07:25:20;16.90;;;11.60;;
71753;SDS011;59593;51.716;7.016;2022-12-07T07:27:46;17.13;;;12.57;;
71753;SDS011;59593;51.716;7.016;2022-12-07T07:30:12;17.80;;;12.87;;
71753;SDS011;59593;51.716;7.016;2022-12-07T07:32:38;15.77;;;10.97;;
71753;SDS011;59593;51.716;7.016;2022-12-07T07:35:03;15.47;;;10.50;;
71753;SDS011;59593;51.716;7.016;2022-12-07T07:37:29;15.97;;;10.77;;
71753;SDS011;59593;51.716;7.016;2022-12-07T07:39:55;14.60;;;9.83;;
71753;SDS011;59593;51.716;7.016;2022-12-07T07:42:21;16.40;;;10.90;;
71753;SDS011;59593;51.716;7.016;2022-12-07T07:44:46;15.67;;;10.37;;
71753;SDS011;59593;51.716;7.016;2022-12-07T07:47:12;13.57;;;10.00;;
71753;SDS011;59593;51.716;7.016;2022-12-07T07:49:38;15.57;;;9.80;;
71753;SDS011;59593;51.716;7.016;2022-12-07T07:52:04;16.13;;;10.30;;
71753;SDS011;59593;51.716;7.016;2022-12-07T07:54:30;12.57;;;10.10;;
71753;SDS011;59593;51.716;7.016;2022-12-07T07:56:56;16.40;;;10.43;;
71753;SDS011;59593;51.716;7.016;2022-12-07T07:59:22;13.10;;;10.73;;
71753;SDS011;59593;51.716;7.016;2022-12-07T08:01:47;16.07;;;10.47;;
71753;SDS011;59593;51.716;7.016;2022-12-07T08:04:13;17.07;;;11.13;;
71753;SDS011;59593;51.716;7.016;2022-12-07T08:06:39;15.30;;;10.20;;
71753;SDS011;59593;51.716;7.016;2022-12-07T08:09:04;15.63;;;10.87;;
71753;SDS011;59593;51.716;7.016;2022-12-07T08:11:31;17.70;;;10.50;;
71753;SDS011;59593;51.716;7.016;2022-12-07T08:13:57;15.47;;;10.53;;
71753;SDS011;59593;51.716;7.016;2022-12-07T08:16:22;13.13;;;9.53;;
71753;SDS011;59593;51.716;7.016;2022-12-07T08:18:48;14.37;;;9.70;;
71753;SDS011;59593;51.716;7.016;2022-12-07T08:21:14;17.60;;;9.90;;
71753;SDS011;59593;51.716;7.016;2022-12-07T08:23:40;18.70;;;10.70;;
71753;SDS011;59593;51.716;7.016;2022-12-07T08:26:08;16.90;;;9.70;;
71753;SDS011;59593;51.716;7.016;2022-12-07T08:28:35;15.10;;;10.10;;
71753;SDS011;59593;51.716;7.016;2022-12-07T08:31:02;16.23;;;10.30;;
71753;SDS011;59593;51.716;7.016;2022-12-07T08:33:32;15.93;;;9.63;;
71753;SDS011;59593;51.716;7.016;2022-12-07T08:36:02;17.07;;;10.10;;
71753;SDS011;59593;51.716;7.016;2022-12-07T08:38:30;19.03;;;10.70;;
71753;SDS011;59593;51.716;7.016;2022-12-07T08:40:56;15.03;;;9.87;;
71753;SDS011;59593;51.716;7.016;2022-12-07T08:43:23;20.10;;;11.47;;
71753;SDS011;59593;51.716;7.016;2022-12-07T08:45:51;15.33;;;10.50;;
71753;SDS011;59593;51.716;7.016;2022-12-07T08:48:30;16.63;;;11.00;;
71753;SDS011;59593;51.716;7.016;2022-12-07T08:50:57;18.80;;;9.97;;
71753;SDS011;59593;51.716;7.016;2022-12-07T08:53:23;16.37;;;10.27;;
71753;SDS011;59593;51.716;7.016;2022-12-07T08:55:49;16.13;;;9.70;;
71753;SDS011;59593;51.716;7.016;2022-12-07T08:58:14;15.83;;;8.87;;
71753;SDS011;59593;51.716;7.016;2022-12-07T09:00:40;14.17;;;8.47;;
71753;SDS011;59593;51.716;7.016;2022-12-07T09:03:06;12.97;;;8.37;;
71753;SDS011;59593;51.716;7.016;2022-12-07T09:05:32;12.60;;;8.10;;
71753;SDS011;59593;51.716;7.016;2022-12-07T09:07:59;12.70;;;7.70;;
71753;SDS011;59593;51.716;7.016;2022-12-07T09:10:26;14.47;;;8.50;;
71753;SDS011;59593;51.716;7.016;2022-12-07T09:12:52;18.60;;;8.53;;
71753;SDS011;59593;51.716;7.016;2022-12-07T09:15:18;13.70;;;8.17;;
71753;SDS011;59593;51.716;7.016;2022-12-07T09:17:43;14.87;;;7.47;;
71753;SDS011;59593;51.716;7.016;2022-12-07T09:20:09;14.00;;;7.30;;
71753;SDS011;59593;51.716;7.016;2022-12-07T09:22:35;10.63;;;6.30;;
71753;SDS011;59593;51.716;7.016;2022-12-07T09:25:01;13.10;;;7.43;;
71753;SDS011;59593;51.716;7.016;2022-12-07T09:27:27;13.33;;;6.80;;
71753;SDS011;59593;51.716;7.016;2022-12-07T09:29:53;12.70;;;6.90;;
71753;SDS011;59593;51.716;7.016;2022-12-07T09:32:19;13.47;;;6.90;;
71753;SDS011;59593;51.716;7.016;2022-12-07T09:34:44;12.67;;;6.43;;
71753;SDS011;59593;51.716;7.016;2022-12-07T09:37:10;13.30;;;6.47;;
71753;SDS011;59593;51.716;7.016;2022-12-07T09:39:39;11.23;;;6.57;;
71753;SDS011;59593;51.716;7.016;2022-12-07T09:42:05;11.10;;;6.30;;
71753;SDS011;59593;51.716;7.016;2022-12-07T09:44:32;10.50;;;5.70;;
71753;SDS011;59593;51.716;7.016;2022-12-07T09:46:58;10.53;;;5.80;;
71753;SDS011;59593;51.716;7.016;2022-12-07T09:49:24;9.93;;;5.87;;
71753;SDS011;59593;51.716;7.016;2022-12-07T09:54:35;10.47;;;4.87;;
71753;SDS011;59593;51.716;7.016;2022-12-07T09:57:04;13.53;;;4.87;;
71753;SDS011;59593;51.716;7.016;2022-12-07T09:59:29;12.53;;;4.53;;
71753;SDS011;59593;51.716;7.016;2022-12-07T10:01:55;11.53;;;4.20;;
71753;SDS011;59593;51.716;7.016;2022-12-07T10:04:21;11.30;;;3.90;;
71753;SDS011;59593;51.716;7.016;2022-12-07T10:06:50;10.97;;;4.10;;
71753;SDS011;59593;51.716;7.016;2022-12-07T10:09:19;11.97;;;4.30;;
71753;SDS011;59593;51.716;7.016;2022-12-07T10:11:59;8.37;;;3.80;;
71753;SDS011;59593;51.716;7.016;2022-12-07T10:14:27;11.90;;;3.83;;
71753;SDS011;59593;51.716;7.016;2022-12-07T10:16:54;11.47;;;4.17;;
71753;SDS011;59593;51.716;7.016;2022-12-07T10:19:24;7.57;;;3.70;;
71753;SDS011;59593;51.716;7.016;2022-12-07T10:22:09;9.40;;;3.60;;
71753;SDS011;59593;51.716;7.016;2022-12-07T10:24:39;7.77;;;3.60;;
71753;SDS011;59593;51.716;7.016;2022-12-07T10:27:17;11.90;;;3.83;;
71753;SDS011;59593;51.716;7.016;2022-12-07T10:29:47;10.73;;;3.57;;
71753;SDS011;59593;51.716;7.016;2022-12-07T10:34:40;10.73;;;3.37;;
71753;SDS011;59593;51.716;7.016;2022-12-07T10:39:42;8.93;;;3.27;;
71753;SDS011;59593;51.716;7.016;2022-12-07T10:42:23;10.07;;;3.70;;
71753;SDS011;59593;51.716;7.016;2022-12-07T10:45:13;7.60;;;3.20;;
71753;SDS011;59593;51.716;7.016;2022-12-07T10:47:44;7.90;;;3.73;;
71753;SDS011;59593;51.716;7.016;2022-12-07T10:50:25;9.70;;;3.57;;
71753;SDS011;59593;51.716;7.016;2022-12-07T11:04:43;11.17;;;4.50;;
71753;SDS011;59593;51.716;7.016;2022-12-07T11:07:36;9.07;;;4.50;;
71753;SDS011;59593;51.716;7.016;2022-12-07T11:10:13;5.93;;;2.80;;
71753;SDS011;59593;51.716;7.016;2022-12-07T11:12:52;6.63;;;2.10;;
71753;SDS011;59593;51.716;7.016;2022-12-07T11:31:36;10.10;;;5.57;;
71753;SDS011;59593;51.716;7.016;2022-12-07T11:37:16;12.27;;;2.93;;
71753;SDS011;59593;51.716;7.016;2022-12-07T11:39:51;5.20;;;2.57;;
71753;SDS011;59593;51.716;7.016;2022-12-07T11:42:31;8.43;;;2.57;;
71753;SDS011;59593;51.716;7.016;2022-12-07T11:47:47;8.60;;;3.40;;
71753;SDS011;59593;51.716;7.016;2022-12-07T11:53:03;7.90;;;2.40;;
71753;SDS011;59593;51.716;7.016;2022-12-07T12:03:36;7.77;;;2.00;;
71753;SDS011;59593;51.716;7.016;2022-12-07T12:06:05;7.40;;;2.37;;
71753;SDS011;59593;51.716;7.016;2022-12-07T12:08:36;8.53;;;2.03;;
71753;SDS011;59593;51.716;7.016;2022-12-07T12:22:45;8.87;;;2.37;;
71753;SDS011;59593;51.716;7.016;2022-12-07T12:25:22;7.73;;;2.43;;
71753;SDS011;59593;51.716;7.016;2022-12-07T12:27:52;10.27;;;2.60;;
71753;SDS011;59593;51.716;7.016;2022-12-07T12:30:37;9.47;;;2.50;;
71753;SDS011;59593;51.716;7.016;2022-12-07T12:33:22;9.47;;;1.93;;
71753;SDS011;59593;51.716;7.016;2022-12-07T12:46:57;7.43;;;1.90;;
71753;SDS011;59593;51.716;7.016;2022-12-07T12:49:37;8.60;;;2.00;;
71753;SDS011;59593;51.716;7.016;2022-12-07T12:54:57;6.43;;;2.37;;
71753;SDS011;59593;51.716;7.016;2022-12-07T12:57:36;6.20;;;2.47;;
71753;SDS011;59593;51.716;7.016;2022-12-07T13:00:23;6.67;;;2.40;;
71753;SDS011;59593;51.716;7.016;2022-12-07T13:02:53;8.63;;;2.83;;
71753;SDS011;59593;51.716;7.016;2022-12-07T13:05:21;6.77;;;2.30;;
71753;SDS011;59593;51.716;7.016;2022-12-07T13:10:44;6.90;;;2.20;;
71753;SDS011;59593;51.716;7.016;2022-12-07T13:15:39;3.47;;;1.27;;
71753;SDS011;59593;51.716;7.016;2022-12-07T13:31:46;5.83;;;2.50;;
71753;SDS011;59593;51.716;7.016;2022-12-07T13:37:09;5.57;;;2.60;;
71753;SDS011;59593;51.716;7.016;2022-12-07T13:39:35;8.17;;;2.80;;
71753;SDS011;59593;51.716;7.016;2022-12-07T13:42:33;6.20;;;2.33;;
71753;SDS011;59593;51.716;7.016;2022-12-07T13:45:00;10.80;;;2.30;;
71753;SDS011;59593;51.716;7.016;2022-12-07T13:47:49;3.80;;;2.10;;
71753;SDS011;59593;51.716;7.016;2022-12-07T13:50:23;7.03;;;2.43;;
71753;SDS011;59593;51.716;7.016;2022-12-07T13:52:57;10.20;;;2.30;;
71753;SDS011;59593;51.716;7.016;2022-12-07T13:55:25;4.37;;;1.93;;
71753;SDS011;59593;51.716;7.016;2022-12-07T13:57:52;9.20;;;2.20;;
71753;SDS011;59593;51.716;7.016;2022-12-07T14:00:29;5.73;;;2.20;;
71753;SDS011;59593;51.716;7.016;2022-12-07T14:02:59;11.27;;;2.03;;
71753;SDS011;59593;51.716;7.016;2022-12-07T14:05:29;9.10;;;2.63;;
71753;SDS011;59593;51.716;7.016;2022-12-07T14:07:59;7.00;;;2.40;;
71753;SDS011;59593;51.716;7.016;2022-12-07T14:12:52;6.43;;;2.50;;
71753;SDS011;59593;51.716;7.016;2022-12-07T14:15:19;7.07;;;2.43;;
71753;SDS011;59593;51.716;7.016;2022-12-07T14:17:50;5.60;;;2.43;;
71753;SDS011;59593;51.716;7.016;2022-12-07T14:20:33;5.73;;;2.13;;
71753;SDS011;59593;51.716;7.016;2022-12-07T14:23:01;9.20;;;2.30;;
71753;SDS011;59593;51.716;7.016;2022-12-07T14:25:44;9.07;;;2.73;;
71753;SDS011;59593;51.716;7.016;2022-12-07T14:28:32;7.23;;;2.30;;
71753;SDS011;59593;51.716;7.016;2022-12-07T14:30:57;6.93;;;2.00;;
71753;SDS011;59593;51.716;7.016;2022-12-07T14:33:24;4.53;;;2.30;;
71753;SDS011;59593;51.716;7.016;2022-12-07T14:35:50;6.27;;;2.73;;
71753;SDS011;59593;51.716;7.016;2022-12-07T14:38:20;10.63;;;2.87;;
71753;SDS011;59593;51.716;7.016;2022-12-07T14:40:46;6.83;;;2.53;;
71753;SDS011;59593;51.716;7.016;2022-12-07T14:43:12;7.90;;;2.70;;
71753;SDS011;59593;51.716;7.016;2022-12-07T14:45:40;6.13;;;2.73;;
71753;SDS011;59593;51.716;7.016;2022-12-07T14:48:07;10.43;;;2.50;;
71753;SDS011;59593;51.716;7.016;2022-12-07T14:50:40;9.60;;;2.87;;
71753;SDS011;59593;51.716;7.016;2022-12-07T14:53:12;7.93;;;2.57;;
71753;SDS011;59593;51.716;7.016;2022-12-07T14:55:40;6.20;;;2.40;;
71753;SDS011;59593;51.716;7.016;2022-12-07T14:58:08;8.37;;;2.53;;
71753;SDS011;59593;51.716;7.016;2022-12-07T15:00:41;7.50;;;2.50;;
71753;SDS011;59593;51.716;7.016;2022-12-07T15:03:11;8.53;;;2.70;;
71753;SDS011;59593;51.716;7.016;2022-12-07T15:05:37;6.77;;;2.50;;
71753;SDS011;59593;51.716;7.016;2022-12-07T15:08:04;9.70;;;2.53;;
71753;SDS011;59593;51.716;7.016;2022-12-07T15:10:30;8.57;;;2.50;;
71753;SDS011;59593;51.716;7.016;2022-12-07T15:12:59;6.30;;;2.47;;
71753;SDS011;59593;51.716;7.016;2022-12-07T15:15:44;8.67;;;2.60;;
71753;SDS011;59593;51.716;7.016;2022-12-07T15:18:11;8.87;;;2.70;;
71753;SDS011;59593;51.716;7.016;2022-12-07T15:20:36;8.43;;;2.80;;
71753;SDS011;59593;51.716;7.016;2022-12-07T15:23:02;5.23;;;2.43;;
71753;SDS011;59593;51.716;7.016;2022-12-07T15:25:28;9.67;;;2.53;;
71753;SDS011;59593;51.716;7.016;2022-12-07T15:27:54;7.10;;;2.83;;
71753;SDS011;59593;51.716;7.016;2022-12-07T15:30:19;5.27;;;2.50;;
71753;SDS011;59593;51.716;7.016;2022-12-07T15:32:48;10.00;;;3.20;;
71753;SDS011;59593;51.716;7.016;2022-12-07T15:35:15;10.07;;;3.10;;
71753;SDS011;59593;51.716;7.016;2022-12-07T15:37:40;8.77;;;2.77;;
71753;SDS011;59593;51.716;7.016;2022-12-07T15:40:06;9.43;;;3.33;;
71753;SDS011;59593;51.716;7.016;2022-12-07T15:42:32;8.60;;;3.10;;
71753;SDS011;59593;51.716;7.016;2022-12-07T15:44:58;10.50;;;3.43;;
71753;SDS011;59593;51.716;7.016;2022-12-07T15:47:30;7.97;;;3.20;;
71753;SDS011;59593;51.716;7.016;2022-12-07T15:50:01;10.27;;;3.00;;
71753;SDS011;59593;51.716;7.016;2022-12-07T15:52:30;10.17;;;3.10;;
71753;SDS011;59593;51.716;7.016;2022-12-07T15:54:56;5.80;;;3.00;;
71753;SDS011;59593;51.716;7.016;2022-12-07T15:57:21;6.20;;;3.50;;
71753;SDS011;59593;51.716;7.016;2022-12-07T15:59:47;16.43;;;4.97;;
71753;SDS011;59593;51.716;7.016;2022-12-07T16:02:13;17.23;;;5.30;;
71753;SDS011;59593;51.716;7.016;2022-12-07T16:04:39;15.20;;;7.03;;
71753;SDS011;59593;51.716;7.016;2022-12-07T16:07:04;14.47;;;8.67;;
71753;SDS011;59593;51.716;7.016;2022-12-07T16:09:30;15.30;;;7.70;;
71753;SDS011;59593;51.716;7.016;2022-12-07T16:11:56;12.23;;;6.67;;
71753;SDS011;59593;51.716;7.016;2022-12-07T16:14:22;16.80;;;8.37;;
71753;SDS011;59593;51.716;7.016;2022-12-07T16:16:48;16.70;;;8.47;;
71753;SDS011;59593;51.716;7.016;2022-12-07T16:19:14;11.73;;;6.70;;
71753;SDS011;59593;51.716;7.016;2022-12-07T16:21:39;15.63;;;5.90;;
71753;SDS011;59593;51.716;7.016;2022-12-07T16:24:05;12.17;;;5.03;;
71753;SDS011;59593;51.716;7.016;2022-12-07T16:26:31;8.67;;;4.73;;
71753;SDS011;59593;51.716;7.016;2022-12-07T16:28:58;6.33;;;2.90;;
71753;SDS011;59593;51.716;7.016;2022-12-07T16:31:24;8.73;;;3.27;;
71753;SDS011;59593;51.716;7.016;2022-12-07T16:33:55;4.30;;;2.37;;
71753;SDS011;59593;51.716;7.016;2022-12-07T16:36:22;9.80;;;2.90;;
71753;SDS011;59593;51.716;7.016;2022-12-07T16:38:50;7.90;;;3.03;;
71753;SDS011;59593;51.716;7.016;2022-12-07T16:41:15;9.53;;;3.80;;
71753;SDS011;59593;51.716;7.016;2022-12-07T16:43:41;8.43;;;3.47;;
71753;SDS011;59593;51.716;7.016;2022-12-07T16:46:07;4.93;;;2.30;;
71753;SDS011;59593;51.716;7.016;2022-12-07T16:48:36;4.33;;;2.30;;
71753;SDS011;59593;51.716;7.016;2022-12-07T16:51:04;7.40;;;2.20;;
71753;SDS011;59593;51.716;7.016;2022-12-07T16:53:31;5.67;;;2.40;;
71753;SDS011;59593;51.716;7.016;2022-12-07T16:55:57;6.60;;;2.40;;
71753;SDS011;59593;51.716;7.016;2022-12-07T16:58:22;6.73;;;2.40;;